Terminal Aerodrome Forecast
Issued by NWS

Home | Current Version | Previous Version | Text Only | Print | Product List | Glossary On
Versions: 1 2 3 4 5 6 7 8 9 10 11 12 13 14 15 16 17 18 19 20 21 22 23 24 25 26 27 28 29
000
FTPA31 PHFO 281100
TAFOGG
TAF
PHOG 281120Z 2812/2912 13006KT P6SM FEW030 SCT050
     FM282000 06015G24KT P6SM FEW035 SCT050
     FM290500 06010KT P6SM FEW030 SCT050
      AMD LTD TO VIS AND WIND TIL 281600=

USA.gov is the U.S. government's official web portal to all federal, state and local government web resources and services.